Time;durP1;ratioP1;P1;durP2;ratioP2;P2;SDS_P1;SDS_P2;PMS_P1;PMS_P2;Temp;Humidity;BMP_temperature;BMP_pressure;BME280_temperature;BME280_humidity;BME280_pressure;Samples;Min_cycle;Max_cycle;Signal;HPM_P1;HPM_P2
2022/01/09 00:01:14;;;;;;;38.70;19.13;;;;;;;0.25;nan;100059.13;5053333;28;20047;-76
2022/01/09 00:03:39;;;;;;;45.80;20.42;;;;;;;0.11;nan;100034.72;5053386;28;20035;-76
2022/01/09 00:06:05;;;;;;;43.22;19.70;;;;;;;0.18;nan;100048.63;5053066;28;20032;-76
2022/01/09 00:08:30;;;;;;;43.05;20.15;;;;;;;0.27;nan;100057.19;5035062;28;20036;-76
2022/01/09 00:10:56;;;;;;;51.13;21.35;;;;;;;0.19;nan;100050.22;5034726;28;20036;-76
2022/01/09 00:13:21;;;;;;;40.30;20.00;;;;;;;0.20;nan;100038.91;5043135;28;20033;-75
2022/01/09 00:15:47;;;;;;;42.20;18.95;;;;;;;0.29;nan;100055.22;5052955;28;20035;-76
2022/01/09 00:18:13;;;;;;;47.38;19.75;;;;;;;0.21;nan;100043.09;5045649;28;20075;-76
2022/01/09 00:20:39;;;;;;;62.10;20.85;;;;;;;0.19;nan;100032.94;5032767;28;20029;-75
2022/01/09 00:23:04;;;;;;;40.75;19.52;;;;;;;0.18;nan;100046.84;5034986;28;20036;-76
2022/01/09 00:25:30;;;;;;;58.65;22.45;;;;;;;0.19;nan;100043.28;5052854;28;20378;-76
2022/01/09 00:27:55;;;;;;;46.38;22.00;;;;;;;0.15;nan;100034.22;5034538;28;20127;-76
2022/01/09 00:30:22;;;;;;;168.90;27.60;;;;;;;0.15;nan;100036.00;5052720;28;20032;-76
2022/01/09 00:32:48;;;;;;;51.03;23.58;;;;;;;0.05;nan;100015.50;5035083;28;20517;-76
2022/01/09 00:35:14;;;;;;;48.67;23.52;;;;;;;0.21;nan;100038.72;5052574;28;20033;-75
2022/01/09 00:37:40;;;;;;;50.20;24.38;;;;;;;0.12;nan;100024.22;5052517;28;20033;-76
2022/01/09 00:40:07;;;;;;;99.90;27.73;;;;;;;0.10;nan;100026.16;5034229;28;20562;-76
2022/01/09 00:42:33;;;;;;;48.95;24.25;;;;;;;0.15;nan;100029.06;5052636;28;20064;-76
2022/01/09 00:44:58;;;;;;;50.17;25.08;;;;;;;0.12;nan;100024.22;5052287;28;20075;-75
2022/01/09 00:47:24;;;;;;;51.08;25.17;;;;;;;0.04;nan;100000.91;5050590;28;20360;-76
2022/01/09 00:49:49;;;;;;;50.58;24.65;;;;;;;0.10;nan;100012.41;5033789;28;20028;-77
2022/01/09 00:52:15;;;;;;;56.22;26.23;;;;;;;0.09;nan;100009.00;5033598;28;20422;-75
2022/01/09 00:54:40;;;;;;;54.92;26.30;;;;;;;0.17;nan;100027.09;5034165;28;20178;-76
2022/01/09 00:57:06;;;;;;;52.22;25.80;;;;;;;0.16;nan;100017.72;5052150;28;20470;-77
2022/01/09 00:59:31;;;;;;;54.22;25.90;;;;;;;-0.30;nan;99955.38;5034449;28;20400;-75
2022/01/09 01:01:57;;;;;;;52.00;25.15;;;;;;;0.04;nan;100002.69;5034332;28;20048;-77
2022/01/09 01:04:22;;;;;;;55.05;26.63;;;;;;;0.10;nan;100010.63;5033595;28;20033;-76
2022/01/09 01:06:49;;;;;;;55.90;25.27;;;;;;;0.12;nan;100005.25;5051891;28;20037;-76
2022/01/09 01:09:16;;;;;;;55.83;26.27;;;;;;;0.06;nan;100001.56;5052008;28;20036;-75
2022/01/09 01:11:41;;;;;;;52.63;25.85;;;;;;;0.10;nan;99996.88;5032515;28;20045;-76
2022/01/09 01:14:07;;;;;;;50.05;24.98;;;;;;;0.10;nan;99996.88;5049843;28;20033;-76
2022/01/09 01:16:32;;;;;;;54.25;26.13;;;;;;;0.02;nan;99984.75;5052087;28;20032;-76
2022/01/09 01:18:58;;;;;;;50.60;24.00;;;;;;;-0.21;nan;99948.44;5043701;28;20376;-76
2022/01/09 01:21:24;;;;;;;51.20;25.38;;;;;;;0.05;nan;99997.38;5052279;28;20383;-76
2022/01/09 01:23:50;;;;;;;46.75;23.73;;;;;;;0.06;nan;99993.81;5034158;28;20044;-76
2022/01/09 01:26:15;;;;;;;51.65;23.58;;;;;;;0.10;nan;99996.88;5051904;28;20094;-76
2022/01/09 01:28:41;;;;;;;50.47;22.55;;;;;;;-0.02;nan;99976.50;5034091;28;20481;-76
2022/01/09 01:31:06;;;;;;;46.95;22.33;;;;;;;-0.04;nan;99967.31;5051935;28;20039;-76
2022/01/09 01:33:32;;;;;;;43.53;22.05;;;;;;;0.03;nan;99978.59;5033986;28;20037;-77
2022/01/09 01:35:57;;;;;;;43.25;20.83;;;;;;;0.03;nan;99967.44;5051904;28;20029;-74
2022/01/09 01:38:22;;;;;;;44.40;20.90;;;;;;;0.07;nan;99974.69;5051923;28;20079;-76
2022/01/09 01:40:48;;;;;;;43.90;21.02;;;;;;;0.06;nan;99961.94;5051048;28;20047;-76
2022/01/09 01:43:13;;;;;;;44.03;20.65;;;;;;;0.09;nan;99964.97;5052006;28;20134;-76
2022/01/09 01:45:39;;;;;;;39.40;18.40;;;;;;;0.05;nan;99948.19;5033574;28;20036;-76
2022/01/09 01:48:09;;;;;;;40.97;18.92;;;;;;;0.05;nan;99937.00;5051831;28;20032;-76
2022/01/09 01:50:36;;;;;;;39.53;19.10;;;;;;;-0.04;nan;99925.91;5033900;28;20548;-76
2022/01/09 01:53:08;;;;;;;37.75;18.35;;;;;;;-0.01;nan;99930.72;5033537;28;20029;-76
2022/01/09 01:55:38;;;;;;;38.95;18.67;;;;;;;-0.05;nan;99916.50;5051686;28;20029;-76
2022/01/09 01:58:04;;;;;;;;;;;;;;;0.05;nan;99935.25;5033901;28;20044;-76
2022/01/09 02:00:30;;;;;;;34.47;15.65;;;;;;;-0.01;nan;99920.38;5051601;28;19912;-76
2022/01/09 02:02:55;;;;;;;36.38;16.73;;;;;;;-0.11;nan;99893.91;5054067;28;20095;-75
2022/01/09 02:05:21;;;;;;;33.63;16.63;;;;;;;-0.05;nan;99900.97;5055545;28;20056;-76
2022/01/09 02:07:46;;;;;;;32.85;15.90;;;;;;;0.03;nan;99926.84;5037330;28;20033;-76
2022/01/09 02:10:11;;;;;;;33.13;16.90;;;;;;;0.03;nan;99920.84;5055319;28;20071;-76
2022/01/09 02:12:38;;;;;;;33.67;16.30;;;;;;;0.02;nan;99916.63;5039547;28;20086;-76
2022/01/09 02:15:43;;;;;;;37.10;17.30;;;;;;;-0.09;nan;99903.09;5055312;28;20029;-76
2022/01/09 02:18:11;;;;;;;35.83;16.90;;;;;;;0.01;nan;99910.66;5055347;28;20079;-75
2022/01/09 02:20:38;;;;;;;40.17;16.50;;;;;;;-0.08;nan;99878.03;5037141;28;20043;-75
2022/01/09 02:23:06;;;;;;;32.95;15.73;;;;;;;0.03;nan;99890.59;5055288;28;20029;-76
2022/01/09 02:25:33;;;;;;;34.08;15.85;;;;;;;-0.02;nan;99879.94;5037033;28;20060;-76
2022/01/09 02:27:59;;;;;;;32.50;15.05;;;;;;;-0.25;nan;99844.44;5055015;28;20041;-76
2022/01/09 02:30:25;;;;;;;30.52;14.50;;;;;;;-0.11;nan;99876.56;5055046;28;20115;-77
2022/01/09 02:32:50;;;;;;;33.63;15.82;;;;;;;-0.09;nan;99876.41;5055141;28;20462;-77
2022/01/09 02:35:16;;;;;;;30.83;15.25;;;;;;;-0.13;nan;99880.31;5055102;28;20039;-76
2022/01/09 02:37:41;;;;;;;33.72;14.70;;;;;;;-0.13;nan;99880.31;5054877;28;20029;-76
2022/01/09 02:40:07;;;;;;;36.83;16.05;;;;;;;-0.07;nan;99888.22;5054330;28;20048;-77
2022/01/09 02:42:34;;;;;;;36.08;16.70;;;;;;;-0.11;nan;99886.13;5053727;28;20053;-77
2022/01/09 02:45:00;;;;;;;42.03;17.85;;;;;;;-0.12;nan;99885.31;5054619;28;20037;-76
2022/01/09 02:47:30;;;;;;;44.83;18.17;;;;;;;-0.03;nan;99891.25;5054798;28;20040;-76
2022/01/09 02:49:56;;;;;;;39.28;17.90;;;;;;;0.01;nan;99884.78;5054889;28;20123;-76
2022/01/09 02:52:35;;;;;;;39.63;16.48;;;;;;;-0.05;nan;99868.16;5054499;28;20036;-77
2022/01/09 02:57:31;;;;;;;36.65;16.85;;;;;;;-0.01;nan;99876.38;5054556;28;20112;-76
2022/01/09 02:59:56;;;;;;;40.10;16.60;;;;;;;0.00;nan;99883.19;5036618;28;20029;-77
2022/01/09 03:02:22;;;;;;;35.08;14.95;;;;;;;-0.10;nan;99860.06;5054469;28;20025;-77
2022/01/09 03:04:47;;;;;;;37.97;16.27;;;;;;;-0.04;nan;99868.94;5054350;28;20100;-76
2022/01/09 03:07:12;;;;;;;35.88;16.80;;;;;;;0.04;nan;99878.47;5054252;28;20035;-76
2022/01/09 03:09:38;;;;;;;35.28;15.57;;;;;;;-0.13;nan;99846.66;5052722;28;20039;-76
2022/01/09 03:12:05;;;;;;;37.55;16.63;;;;;;;-0.01;nan;99861.66;5054371;28;20072;-76
2022/01/09 03:14:30;;;;;;;34.10;15.55;;;;;;;-0.05;nan;99859.56;5053697;28;20117;-76
2022/01/09 03:16:55;;;;;;;37.03;15.30;;;;;;;-0.09;nan;99840.19;5042280;28;20455;-77
2022/01/09 03:19:21;;;;;;;38.05;15.98;;;;;;;-0.10;nan;99833.38;5040656;28;20061;-77
2022/01/09 03:21:46;;;;;;;42.40;16.13;;;;;;;-0.02;nan;99851.47;5035992;28;20036;-77
2022/01/09 03:24:12;;;;;;;42.10;18.35;;;;;;;-0.18;nan;99826.47;5036034;28;20048;-76
2022/01/09 03:26:37;;;;;;;51.45;19.45;;;;;;;-0.16;nan;99832.28;5035839;28;20061;-77
2022/01/09 03:29:03;;;;;;;56.22;20.40;;;;;;;-0.13;nan;99841.50;5054123;28;20036;-77
2022/01/09 03:31:28;;;;;;;58.78;20.52;;;;;;;-0.05;nan;99834.50;5053814;28;20090;-77
2022/01/09 03:33:54;;;;;;;64.10;22.13;;;;;;;-0.17;nan;99806.56;5054112;28;20033;-77
2022/01/09 03:36:19;;;;;;;64.28;23.15;;;;;;;-0.13;nan;99815.63;5053800;28;20033;-76
2022/01/09 03:38:44;;;;;;;67.30;24.65;;;;;;;-0.17;nan;99817.72;5053575;28;20124;-76
2022/01/09 03:41:10;;;;;;;68.50;26.10;;;;;;;-0.20;nan;99823.25;5053362;28;20052;-77
2022/01/09 03:43:35;;;;;;;67.03;25.90;;;;;;;-0.09;nan;99850.53;5053671;28;20182;-77
2022/01/09 03:46:01;;;;;;;67.78;25.25;;;;;;;-0.14;nan;99834.72;5053780;28;20141;-76
2022/01/09 03:48:26;;;;;;;68.07;25.90;;;;;;;-0.17;nan;99825.47;5053616;28;20533;-76
2022/01/09 03:50:52;;;;;;;63.35;23.52;;;;;;;-0.15;nan;99827.91;5035858;28;20057;-76
2022/01/09 03:53:18;;;;;;;62.13;22.95;;;;;;;-0.15;nan;99830.50;5053290;28;20150;-76
2022/01/09 03:55:43;;;;;;;67.78;24.60;;;;;;;-0.16;nan;99824.53;5053689;28;20022;-77
2022/01/09 03:58:09;;;;;;;61.45;22.70;;;;;;;-0.23;nan;99821.81;5053299;28;20094;-76
2022/01/09 04:00:34;;;;;;;63.10;22.67;;;;;;;-0.16;nan;99823.72;5053316;28;20040;-76
2022/01/09 04:02:59;;;;;;;64.32;23.13;;;;;;;-0.27;nan;99817.13;5035195;28;20037;-77
2022/01/09 04:05:25;;;;;;;62.30;23.50;;;;;;;-0.27;nan;99832.66;5035217;28;20033;-76
2022/01/09 04:07:51;;;;;;;61.20;22.70;;;;;;;-0.20;nan;99830.22;5053238;28;20468;-77
2022/01/09 04:10:19;;;;;;;59.67;23.42;;;;;;;-0.35;nan;99819.75;5034908;28;20025;-77
2022/01/09 04:12:50;;;;;;;61.72;23.27;;;;;;;-0.35;nan;99819.75;5038059;28;20048;-76
2022/01/09 04:15:17;;;;;;;60.35;23.67;;;;;;;-0.34;nan;99819.56;5033305;28;20119;-76
2022/01/09 04:17:52;;;;;;;59.85;23.00;;;;;;;-0.32;nan;99819.41;5049294;28;20021;-76
2022/01/09 04:20:30;;;;;;;62.75;24.75;;;;;;;-0.17;nan;99837.63;5053227;28;20518;-76
2022/01/09 04:22:57;;;;;;;68.22;25.63;;;;;;;-0.25;nan;99834.09;5052678;28;20044;-76
2022/01/09 04:25:23;;;;;;;62.25;23.55;;;;;;;-0.25;nan;99820.38;5034942;28;20038;-76
2022/01/09 04:27:50;;;;;;;64.53;24.33;;;;;;;-0.25;nan;99823.75;5034854;28;20414;-77
2022/01/09 04:30:16;;;;;;;69.85;26.05;;;;;;;-0.26;nan;99822.16;5034745;28;20032;-78
2022/01/09 04:32:42;;;;;;;68.22;24.67;;;;;;;-0.15;nan;99836.47;5053026;28;20029;-77
2022/01/09 04:35:09;;;;;;;66.93;24.88;;;;;;;-0.18;nan;99825.66;5052854;28;20095;-75
2022/01/09 04:37:35;;;;;;;63.35;24.33;;;;;;;-0.33;nan;99808.28;5052515;28;20104;-77
2022/01/09 04:40:02;;;;;;;68.30;25.27;;;;;;;-0.44;nan;99796.50;5034243;28;20055;-77
2022/01/09 04:42:36;;;;;;;69.90;25.75;;;;;;;-0.28;nan;99824.09;5034597;28;20067;-76
2022/01/09 04:45:02;;;;;;;66.95;25.13;;;;;;;-0.21;nan;99832.00;5034410;28;20043;-76
2022/01/09 04:47:27;;;;;;;68.50;24.42;;;;;;;-0.26;nan;99835.09;5034588;28;20025;-76
2022/01/09 04:49:53;;;;;;;74.95;25.35;;;;;;;-0.29;nan;99824.25;5052676;28;20059;-76
2022/01/09 04:52:23;;;;;;;76.55;24.95;;;;;;;-0.24;nan;99825.38;5052269;28;20083;-76
2022/01/09 04:54:49;;;;;;;63.88;24.60;;;;;;;-0.32;nan;99824.59;5034198;28;20144;-76
2022/01/09 04:57:14;;;;;;;72.40;25.52;;;;;;;-0.37;nan;99821.72;5052261;28;20108;-76
2022/01/09 04:59:40;;;;;;;71.80;26.02;;;;;;;-0.28;nan;99837.03;5034526;28;20033;-76
2022/01/09 05:02:05;;;;;;;71.82;24.75;;;;;;;-0.35;nan;99817.19;5052295;28;20429;-76
2022/01/09 05:04:30;;;;;;;66.60;24.27;;;;;;;-0.34;nan;99826.53;5052346;28;20032;-75
2022/01/09 05:06:56;;;;;;;66.75;24.67;;;;;;;-0.54;nan;99795.09;5052047;28;20115;-75
2022/01/09 05:09:21;;;;;;;64.70;23.88;;;;;;;-0.33;nan;99828.97;5034309;28;20537;-74
2022/01/09 05:11:47;;;;;;;60.10;21.40;;;;;;;-0.40;nan;99811.72;5034289;28;20458;-75
2022/01/09 05:14:12;;;;;;;60.08;21.27;;;;;;;-0.25;nan;99836.69;5052073;28;20025;-75
2022/01/09 05:16:42;;;;;;;56.88;19.98;;;;;;;-0.30;nan;99823.44;5052059;28;20029;-75
2022/01/09 05:19:16;;;;;;;55.65;19.88;;;;;;;-0.38;nan;99820.06;5052098;28;20029;-76
2022/01/09 05:21:42;;;;;;;83.10;22.60;;;;;;;-0.30;nan;99827.81;5052318;28;20102;-75
2022/01/09 05:24:07;;;;;;;59.67;20.98;;;;;;;-0.45;nan;99809.63;5051790;28;20498;-77
2022/01/09 05:26:32;;;;;;;77.78;21.58;;;;;;;-0.33;nan;99838.50;5052091;28;20033;-76
2022/01/09 05:28:58;;;;;;;71.13;21.63;;;;;;;-0.44;nan;99813.81;5051946;28;20477;-76
2022/01/09 05:31:24;;;;;;;86.85;21.58;;;;;;;-0.34;nan;99823.94;5033912;28;20032;-75
2022/01/09 05:33:49;;;;;;;94.28;22.45;;;;;;;-0.31;nan;99832.19;5052189;28;20494;-76
2022/01/09 05:36:14;;;;;;;72.30;21.88;;;;;;;-0.35;nan;99820.56;5051888;28;20107;-76
2022/01/09 05:38:40;;;;;;;109.07;23.77;;;;;;;-0.40;nan;99815.09;5037369;28;20124;-76
2022/01/09 05:41:05;;;;;;;96.70;23.52;;;;;;;-0.43;nan;99807.69;5055608;28;20049;-75
2022/01/09 05:43:32;;;;;;;121.53;21.85;;;;;;;-0.36;nan;99812.97;5056008;28;20040;-76
2022/01/09 05:45:57;;;;;;;95.63;22.42;;;;;;;-0.30;nan;99825.22;5037932;28;20037;-76
2022/01/09 05:48:22;;;;;;;85.03;22.88;;;;;;;-0.34;nan;99813.59;5055807;28;20028;-76
2022/01/09 05:50:48;;;;;;;83.95;22.77;;;;;;;-0.59;nan;99776.69;5038115;28;20395;-76
2022/01/09 05:53:13;;;;;;;97.72;21.83;;;;;;;-0.37;nan;99795.84;5037379;28;20108;-75
2022/01/09 05:55:39;;;;;;;98.07;21.73;;;;;;;-0.43;nan;99789.56;5055903;28;20086;-75
2022/01/09 05:58:04;;;;;;;70.97;20.65;;;;;;;-0.34;nan;99798.88;5037537;28;20120;-76
2022/01/09 06:00:30;;;;;;;131.05;23.33;;;;;;;-0.33;nan;99791.94;5055728;28;20033;-76
2022/01/09 06:02:55;;;;;;;120.75;21.75;;;;;;;-0.32;nan;99799.53;5055639;28;20063;-76
2022/01/09 06:05:21;;;;;;;88.05;20.77;;;;;;;-0.30;nan;99804.53;5037403;28;20056;-76
2022/01/09 06:07:46;;;;;;;153.75;21.55;;;;;;;-0.42;nan;99788.59;5037155;28;20496;-76
2022/01/09 06:10:12;;;;;;;71.50;20.67;;;;;;;-0.30;nan;99807.13;5055436;28;20029;-76
2022/01/09 06:12:38;;;;;;;83.65;21.13;;;;;;;-0.32;nan;99799.53;5055373;28;20060;-76
2022/01/09 06:15:06;;;;;;;159.23;23.67;;;;;;;-0.31;nan;99802.91;5055288;28;20568;-75
2022/01/09 06:17:36;;;;;;;639.80;51.93;;;;;;;-0.36;nan;99797.44;5055437;28;20051;-75
2022/01/09 06:20:03;;;;;;;125.88;22.13;;;;;;;-0.34;nan;99805.84;5054722;28;20264;-75
2022/01/09 06:22:28;;;;;;;117.63;21.35;;;;;;;-0.40;nan;99802.16;5036817;28;20403;-75
2022/01/09 06:24:53;;;;;;;102.60;19.73;;;;;;;-0.40;nan;99801.34;5036709;28;20029;-75
2022/01/09 06:27:19;;;;;;;130.18;19.13;;;;;;;-0.45;nan;99796.69;5036929;28;20060;-76
2022/01/09 06:29:45;;;;;;;157.75;20.20;;;;;;;-0.33;nan;99815.22;5055224;28;20090;-75
2022/01/09 06:32:10;;;;;;;103.30;19.45;;;;;;;-0.37;nan;99809.56;5055025;28;20033;-76
2022/01/09 06:34:36;;;;;;;83.43;17.63;;;;;;;-0.48;nan;99795.25;5054797;28;20033;-76
2022/01/09 06:37:02;;;;;;;103.10;18.65;;;;;;;-0.40;nan;99811.72;5054748;28;20398;-75
2022/01/09 06:39:28;;;;;;;149.48;19.98;;;;;;;-0.39;nan;99810.72;5036097;28;20045;-75
2022/01/09 06:41:53;;;;;;;102.18;19.10;;;;;;;-0.47;nan;99793.47;5037066;28;20090;-75
2022/01/09 06:44:18;;;;;;;93.25;17.45;;;;;;;-0.40;nan;99801.34;5036633;28;20124;-76
2022/01/09 06:46:44;;;;;;;115.97;18.55;;;;;;;-0.44;nan;99788.75;5036403;28;20032;-76
2022/01/09 06:49:10;;;;;;;112.88;17.23;;;;;;;-0.52;nan;99781.03;5035362;28;20037;-75
2022/01/09 06:51:36;;;;;;;61.80;17.00;;;;;;;-0.44;nan;99795.69;5054573;28;20040;-76
2022/01/09 06:54:01;;;;;;;224.30;22.23;;;;;;;-0.51;nan;99792.97;5054471;28;20033;-76
2022/01/09 06:56:27;;;;;;;114.25;18.90;;;;;;;-0.43;nan;99802.50;5054756;28;20095;-75
2022/01/09 06:58:52;;;;;;;177.73;22.77;;;;;;;-0.45;nan;99807.84;5054602;28;20068;-76
2022/01/09 07:01:18;;;;;;;112.68;20.50;;;;;;;-0.38;nan;99820.06;5052955;28;20048;-77
2022/01/09 07:03:43;;;;;;;124.82;20.70;;;;;;;-0.43;nan;99818.03;5054614;28;20033;-76
2022/01/09 07:06:09;;;;;;;109.30;22.25;;;;;;;-0.45;nan;99809.63;5036048;28;20048;-76
2022/01/09 07:08:35;;;;;;;139.77;22.25;;;;;;;-0.46;nan;99813.16;5054010;28;20044;-78
2022/01/09 07:11:01;;;;;;;81.97;21.25;;;;;;;-0.45;nan;99820.75;5054317;28;20045;-77
2022/01/09 07:13:27;;;;;;;106.95;22.08;;;;;;;-0.43;nan;99818.03;5054277;28;20035;-77
2022/01/09 07:15:52;;;;;;;130.25;22.73;;;;;;;-0.62;nan;99792.53;5036392;28;20029;-76
2022/01/09 07:18:18;;;;;;;124.75;22.08;;;;;;;-0.43;nan;99815.44;5046085;28;20121;-77
2022/01/09 07:20:43;;;;;;;107.28;23.17;;;;;;;-0.43;nan;99810.25;5034349;28;20029;-76
2022/01/09 07:23:09;;;;;;;91.07;23.00;;;;;;;-0.45;nan;99810.41;5043775;28;20033;-76
2022/01/09 07:25:34;;;;;;;93.25;22.85;;;;;;;-0.40;nan;99812.50;5053711;28;20379;-76
2022/01/09 07:28:02;;;;;;;106.38;22.95;;;;;;;-0.46;nan;99798.44;5054060;28;20040;-74
2022/01/09 07:30:28;;;;;;;179.90;25.98;;;;;;;-0.47;nan;99803.81;5053809;28;20432;-75
2022/01/09 07:32:53;;;;;;;86.93;23.20;;;;;;;-0.44;nan;99806.03;5035911;28;20061;-78
2022/01/09 07:35:19;;;;;;;192.85;25.98;;;;;;;-0.43;nan;99794.75;5053784;28;20535;-77
2022/01/09 07:37:44;;;;;;;147.90;25.45;;;;;;;-0.44;nan;99793.91;5034902;28;20029;-76
2022/01/09 07:40:10;;;;;;;115.72;24.33;;;;;;;-0.46;nan;99776.94;5035102;28;20044;-77
2022/01/09 07:42:36;;;;;;;197.32;27.80;;;;;;;-0.50;nan;99778.28;5053354;28;20029;-77
2022/01/09 07:45:01;;;;;;;158.90;28.92;;;;;;;-0.48;nan;99784.06;5035341;28;20509;-77
2022/01/09 07:47:27;;;;;;;207.57;32.45;;;;;;;-0.39;nan;99798.59;5035733;28;20041;-77
2022/01/09 07:49:52;;;;;;;193.40;30.40;;;;;;;-0.34;nan;99800.66;5035599;28;20040;-77
2022/01/09 07:52:18;;;;;;;201.23;32.42;;;;;;;-0.39;nan;99787.44;5053479;28;20037;-77
2022/01/09 07:54:43;;;;;;;164.18;30.60;;;;;;;-0.39;nan;99797.78;5053374;28;20125;-77
2022/01/09 07:57:08;;;;;;;142.02;28.50;;;;;;;-0.43;nan;99789.56;5031965;28;20463;-78
2022/01/09 07:59:34;;;;;;;182.75;29.73;;;;;;;-0.51;nan;99771.47;5033501;28;20492;-76
2022/01/09 08:01:59;;;;;;;125.47;29.60;;;;;;;-0.47;nan;99770.19;5045974;28;20518;-76
2022/01/09 08:04:24;;;;;;;166.25;29.42;;;;;;;-0.51;nan;99771.47;5035257;28;20128;-76
2022/01/09 08:06:50;;;;;;;166.60;31.45;;;;;;;-0.49;nan;99769.53;5052895;28;20035;-76
2022/01/09 08:09:15;;;;;;;331.17;38.47;;;;;;;-0.40;nan;99780.66;5052959;28;20071;-76
2022/01/09 08:11:41;;;;;;;165.23;34.72;;;;;;;-0.46;nan;99770.00;5053739;28;20403;-77
2022/01/09 08:14:06;;;;;;;179.30;32.58;;;;;;;-0.40;nan;99786.63;5053124;28;20117;-76
2022/01/09 08:16:31;;;;;;;257.13;40.25;;;;;;;-0.37;nan;99783.72;5053140;28;20521;-76
2022/01/09 08:18:57;;;;;;;913.67;89.75;;;;;;;-0.46;nan;99766.59;5039468;28;20518;-75
2022/01/09 08:21:22;;;;;;;170.43;35.40;;;;;;;-0.46;nan;99770.00;5032946;28;20030;-76
2022/01/09 08:23:49;;;;;;;173.32;34.85;;;;;;;-0.46;nan;99764.03;5050095;28;20443;-76
2022/01/09 08:26:15;;;;;;;201.43;37.70;;;;;;;-0.41;nan;99772.06;5034903;28;20394;-76
2022/01/09 08:28:44;;;;;;;196.65;39.75;;;;;;;-0.41;nan;99771.28;5034896;28;20949;-76
2022/01/09 08:31:14;;;;;;;223.47;38.90;;;;;;;-0.43;nan;99761.91;5052645;28;20028;-76
2022/01/09 08:33:39;;;;;;;165.63;37.35;;;;;;;-0.38;nan;99765.75;5034775;28;20033;-76
2022/01/09 08:36:05;;;;;;;170.98;38.63;;;;;;;-0.37;nan;99764.81;5052472;28;20031;-75
2022/01/09 08:38:30;;;;;;;179.35;38.05;;;;;;;-0.43;nan;99754.16;5052589;28;20032;-76
2022/01/09 08:40:56;;;;;;;173.48;35.80;;;;;;;-0.34;nan;99759.28;5034112;28;20494;-76
2022/01/09 08:43:22;;;;;;;231.52;36.33;;;;;;;-0.39;nan;99757.19;5034574;28;20399;-75
2022/01/09 08:45:47;;;;;;;195.85;32.70;;;;;;;-0.43;nan;99745.59;5052243;28;20037;-75
2022/01/09 08:48:13;;;;;;;163.85;32.28;;;;;;;-0.27;nan;99763.59;5052408;28;20031;-76
2022/01/09 08:50:38;;;;;;;148.85;30.98;;;;;;;-0.36;nan;99737.94;5052209;28;20471;-76
2022/01/09 08:53:04;;;;;;;157.80;28.45;;;;;;;-0.51;nan;99725.72;5052362;28;20032;-75
2022/01/09 08:55:29;;;;;;;153.25;28.27;;;;;;;-0.27;nan;99760.22;5052459;28;20032;-75
2022/01/09 08:57:57;;;;;;;168.65;28.42;;;;;;;-0.31;nan;99753.75;5052475;28;20032;-76
2022/01/09 09:00:23;;;;;;;129.25;28.95;;;;;;;-0.30;nan;99750.22;5052478;28;20044;-76
2022/01/09 09:02:48;;;;;;;134.60;27.23;;;;;;;-0.27;nan;99744.69;5052428;28;20398;-75
2022/01/09 09:05:14;;;;;;;156.52;29.92;;;;;;;-0.17;nan;99747.06;5051969;28;20025;-74
2022/01/09 09:07:39;;;;;;;169.18;31.60;;;;;;;-0.22;nan;99735.47;5052176;28;20037;-75
2022/01/09 09:10:05;;;;;;;173.80;29.60;;;;;;;-0.16;nan;99741.72;5052263;28;20032;-75
2022/01/09 09:12:32;;;;;;;155.20;28.98;;;;;;;-0.26;nan;99723.03;5051198;28;20028;-75
2022/01/09 09:15:03;;;;;;;163.57;31.60;;;;;;;-0.18;nan;99729.94;5036549;28;20472;-75
2022/01/09 09:17:29;;;;;;;313.58;36.83;;;;;;;-0.16;nan;99736.56;5046555;28;20036;-76
2022/01/09 09:19:55;;;;;;;180.93;32.22;;;;;;;-0.20;nan;99724.13;5030856;28;20026;-76
2022/01/09 09:22:21;;;;;;;152.30;33.05;;;;;;;-0.16;nan;99735.75;5033948;28;20029;-75
2022/01/09 09:24:46;;;;;;;148.65;33.42;;;;;;;-0.17;nan;99721.19;5034020;28;20033;-75
2022/01/09 09:27:11;;;;;;;152.80;28.73;;;;;;;-0.20;nan;99717.16;5033877;28;20040;-75
2022/01/09 09:29:37;;;;;;;149.57;28.70;;;;;;;-0.13;nan;99727.63;5052444;28;20033;-76
2022/01/09 09:32:02;;;;;;;117.57;29.23;;;;;;;-0.18;nan;99715.22;5051933;28;20111;-75
2022/01/09 09:34:28;;;;;;;156.85;29.15;;;;;;;-0.21;nan;99702.63;5050045;28;20055;-75
2022/01/09 09:36:54;;;;;;;125.63;27.63;;;;;;;-0.20;nan;99700.84;5032959;28;20080;-75
2022/01/09 09:39:20;;;;;;;120.97;30.00;;;;;;;-0.12;nan;99706.78;5030105;28;20073;-74
2022/01/09 09:41:46;;;;;;;130.70;29.92;;;;;;;-0.05;nan;99715.47;5046348;28;20033;-75
2022/01/09 09:44:12;;;;;;;117.45;28.75;;;;;;;-0.05;nan;99704.28;5048149;28;20034;-75
2022/01/09 09:46:38;;;;;;;226.82;51.83;;;;;;;-0.01;nan;99714.13;5051424;28;20272;-75
2022/01/09 09:49:04;;;;;;;547.65;80.50;;;;;;;-0.04;nan;99704.13;5039896;28;20037;-76
2022/01/09 09:51:30;;;;;;;191.10;37.75;;;;;;;-0.01;nan;99702.97;5031442;28;20498;-75
2022/01/09 09:53:58;;;;;;;175.88;37.95;;;;;;;-0.05;nan;99694.75;5047280;28;20032;-75
2022/01/09 09:56:24;;;;;;;154.18;36.85;;;;;;;0.02;nan;99702.59;5051708;28;20029;-76
2022/01/09 09:58:51;;;;;;;103.07;27.98;;;;;;;0.04;nan;99698.06;5052190;28;20048;-76
2022/01/09 10:01:29;;;;;;;164.73;34.05;;;;;;;0.14;nan;99710.78;5053396;28;20090;-75
2022/01/09 10:04:03;;;;;;;103.63;27.48;;;;;;;0.04;nan;99687.72;5051817;28;20029;-76
2022/01/09 10:06:42;;;;;;;116.97;28.20;;;;;;;0.11;nan;99701.56;5051047;28;20390;-75
2022/01/09 10:09:12;;;;;;;120.63;27.77;;;;;;;-0.01;nan;99703.75;5051423;28;20123;-75
2022/01/09 10:11:45;;;;;;;108.22;29.63;;;;;;;-0.14;nan;99677.66;5033803;28;20095;-76
2022/01/09 10:14:29;;;;;;;116.43;28.48;;;;;;;-0.12;nan;99675.72;5051576;28;20025;-76
2022/01/09 10:17:24;;;;;;;113.32;26.38;;;;;;;0.05;nan;99699.69;5051461;28;20029;-75
2022/01/09 10:19:50;;;;;;;111.88;25.63;;;;;;;0.05;nan;99702.28;5034576;28;20554;-76
2022/01/09 10:22:28;;;;;;;101.97;28.33;;;;;;;0.00;nan;99694.25;5030019;28;20128;-75
2022/01/09 10:24:56;;;;;;;101.13;26.42;;;;;;;0.03;nan;99700.84;5017348;28;20117;-76
2022/01/09 10:27:33;;;;;;;86.63;25.67;;;;;;;0.01;nan;99701.00;5020746;28;20034;-75
2022/01/09 10:29:59;;;;;;;66.10;21.73;;;;;;;0.01;nan;99689.84;5034811;28;20060;-75
2022/01/09 10:32:28;;;;;;;66.38;22.45;;;;;;;-0.02;nan;99680.66;5033317;28;20033;-75
2022/01/09 10:35:15;;;;;;;70.85;23.10;;;;;;;0.05;nan;99696.28;5033735;28;20386;-75
2022/01/09 10:37:43;;;;;;;80.00;24.40;;;;;;;0.06;nan;99692.72;5034904;28;20033;-76
2022/01/09 10:40:16;;;;;;;117.22;28.25;;;;;;;0.06;nan;99692.72;5024003;28;20118;-75
2022/01/09 10:42:42;;;;;;;287.60;52.10;;;;;;;0.24;nan;99700.16;5054894;28;20064;-75
2022/01/09 10:45:16;;;;;;;114.28;32.60;;;;;;;0.58;nan;99702.31;5054367;28;20167;-75
2022/01/09 10:47:42;;;;;;;105.85;28.30;;;;;;;0.58;nan;99702.31;5036786;28;20036;-74
2022/01/09 10:50:10;;;;;;;90.32;26.67;;;;;;;0.51;nan;99704.78;5036537;28;20064;-75
2022/01/09 10:52:39;;;;;;;86.15;25.10;;;;;;;0.41;nan;99696.47;5054532;28;20120;-75
2022/01/09 10:55:08;;;;;;;81.43;25.03;;;;;;;0.34;nan;99703.34;5036275;28;20028;-74
2022/01/09 10:57:37;;;;;;;80.13;25.00;;;;;;;0.31;nan;99708.84;5036271;28;20033;-75
2022/01/09 11:00:08;;;;;;;82.00;24.23;;;;;;;0.21;nan;99686.59;5036349;28;20064;-74
2022/01/09 11:02:33;;;;;;;85.22;24.65;;;;;;;0.30;nan;99694.31;5054463;28;20039;-74
2022/01/09 11:04:59;;;;;;;72.05;22.60;;;;;;;0.23;nan;99688.22;5054364;28;20028;-75
2022/01/09 11:07:25;;;;;;;78.35;23.08;;;;;;;0.28;nan;99696.25;5054065;28;20071;-75
2022/01/09 11:09:51;;;;;;;85.00;25.20;;;;;;;0.23;nan;99691.59;5054684;28;20375;-74
2022/01/09 11:12:20;;;;;;;89.35;26.25;;;;;;;0.20;nan;99687.59;5054351;28;20035;-74
2022/01/09 11:14:47;;;;;;;82.70;25.33;;;;;;;0.24;nan;99705.34;5054316;28;20118;-75
2022/01/09 11:17:15;;;;;;;97.78;25.92;;;;;;;0.13;nan;99678.91;5044752;28;20029;-74
2022/01/09 11:19:41;;;;;;;100.00;25.23;;;;;;;0.23;nan;99693.41;5053993;28;20041;-75
2022/01/09 11:22:10;;;;;;;88.53;25.27;;;;;;;0.23;nan;99694.19;5054436;28;20133;-75
2022/01/09 11:25:14;;;;;;;89.43;26.02;;;;;;;0.24;nan;99689.81;5035785;28;20110;-73
2022/01/09 11:27:52;;;;;;;101.15;26.77;;;;;;;0.25;nan;99686.25;4975883;28;20038;-74
2022/01/09 11:30:49;;;;;;;92.32;26.83;;;;;;;0.29;nan;99692.69;4992488;28;20046;-74
2022/01/09 11:33:31;;;;;;;109.88;27.60;;;;;;;0.31;nan;99688.97;4975652;28;20049;-74